sensor_id;sensor_type;location;lat;lon;timestamp;pressure;altitude;pressure_sealevel;temperature;humidity
11053;BME280;55230;42.602;23.470;2023-03-01T00:02:21;93827.38;;;4.33;100.00
11053;BME280;55230;42.602;23.470;2023-03-01T00:04:48;93943.47;;;4.93;100.00
11053;BME280;55230;42.602;23.470;2023-03-01T00:07:14;93985.22;;;5.13;100.00
11053;BME280;55230;42.602;23.470;2023-03-01T00:09:41;93918.34;;;4.87;100.00
11053;BME280;55230;42.602;23.470;2023-03-01T00:12:12;93676.72;;;3.03;100.00
11053;BME280;55230;42.602;23.470;2023-03-01T00:14:39;93918.69;;;4.55;100.00
11053;BME280;55230;42.602;23.470;2023-03-01T00:17:06;93670.84;;;2.75;100.00
11053;BME280;55230;42.602;23.470;2023-03-01T00:19:33;93871.44;;;3.74;100.00
11053;BME280;55230;42.602;23.470;2023-03-01T00:22:00;93707.03;;;2.69;100.00
11053;BME280;55230;42.602;23.470;2023-03-01T00:24:26;93905.78;;;4.50;100.00
11053;BME280;55230;42.602;23.470;2023-03-01T00:26:53;93912.03;;;4.36;100.00
11053;BME280;55230;42.602;23.470;2023-03-01T00:29:24;93814.91;;;3.90;100.00
11053;BME280;55230;42.602;23.470;2023-03-01T00:31:50;93937.44;;;4.85;100.00
11053;BME280;55230;42.602;23.470;2023-03-01T00:34:17;93823.75;;;4.17;100.00
11053;BME280;55230;42.602;23.470;2023-03-01T00:36:44;93769.91;;;3.92;100.00
11053;BME280;55230;42.602;23.470;2023-03-01T00:39:13;93916.13;;;4.78;100.00
11053;BME280;55230;42.602;23.470;2023-03-01T00:41:40;93924.50;;;4.80;100.00
11053;BME280;55230;42.602;23.470;2023-03-01T00:44:07;93932.81;;;4.89;100.00
11053;BME280;55230;42.602;23.470;2023-03-01T00:46:35;93904.22;;;4.52;100.00
11053;BME280;55230;42.602;23.470;2023-03-01T00:49:02;93830.53;;;3.88;100.00
11053;BME280;55230;42.602;23.470;2023-03-01T00:51:30;93923.63;;;4.56;100.00
11053;BME280;55230;42.602;23.470;2023-03-01T00:54:00;93848.53;;;4.17;100.00
11053;BME280;55230;42.602;23.470;2023-03-01T00:56:28;93914.78;;;4.63;100.00
11053;BME280;55230;42.602;23.470;2023-03-01T00:58:55;93813.97;;;3.66;100.00
11053;BME280;55230;42.602;23.470;2023-03-01T01:01:24;93696.69;;;2.81;100.00
11053;BME280;55230;42.602;23.470;2023-03-01T01:03:55;93840.84;;;3.86;100.00
11053;BME280;55230;42.602;23.470;2023-03-01T01:06:24;93915.00;;;4.42;100.00
11053;BME280;55230;42.602;23.470;2023-03-01T01:08:52;93923.41;;;4.40;100.00
11053;BME280;55230;42.602;23.470;2023-03-01T01:11:24;93921.50;;;4.41;100.00
11053;BME280;55230;42.602;23.470;2023-03-01T01:14:04;93911.25;;;4.36;100.00
11053;BME280;55230;42.602;23.470;2023-03-01T01:16:31;93904.50;;;4.28;100.00
11053;BME280;55230;42.602;23.470;2023-03-01T01:19:00;93921.06;;;4.46;100.00
11053;BME280;55230;42.602;23.470;2023-03-01T01:21:27;93691.72;;;2.80;100.00
11053;BME280;55230;42.602;23.470;2023-03-01T01:23:54;93914.50;;;4.54;100.00
11053;BME280;55230;42.602;23.470;2023-03-01T01:26:23;93895.44;;;4.15;100.00
11053;BME280;55230;42.602;23.470;2023-03-01T01:28:50;93820.47;;;3.62;100.00
11053;BME280;55230;42.602;23.470;2023-03-01T01:31:18;93774.06;;;3.55;100.00
11053;BME280;55230;42.602;23.470;2023-03-01T01:33:45;93927.91;;;4.47;100.00
11053;BME280;55230;42.602;23.470;2023-03-01T01:36:13;93921.88;;;4.43;100.00
11053;BME280;55230;42.602;23.470;2023-03-01T01:38:40;93856.78;;;3.93;100.00
11053;BME280;55230;42.602;23.470;2023-03-01T01:41:09;93930.09;;;4.18;100.00
11053;BME280;55230;42.602;23.470;2023-03-01T01:43:38;93872.44;;;3.87;100.00
11053;BME280;55230;42.602;23.470;2023-03-01T01:46:15;93700.81;;;2.89;100.00
11053;BME280;55230;42.602;23.470;2023-03-01T01:48:45;93951.34;;;4.32;100.00
11053;BME280;55230;42.602;23.470;2023-03-01T01:51:18;93801.53;;;3.49;100.00
11053;BME280;55230;42.602;23.470;2023-03-01T01:53:49;93936.41;;;4.35;100.00
11053;BME280;55230;42.602;23.470;2023-03-01T01:56:18;93926.41;;;4.46;100.00
11053;BME280;55230;42.602;23.470;2023-03-01T01:58:47;93941.81;;;4.31;100.00
11053;BME280;55230;42.602;23.470;2023-03-01T02:01:14;93631.16;;;2.47;100.00
11053;BME280;55230;42.602;23.470;2023-03-01T02:03:43;93777.03;;;3.65;100.00
11053;BME280;55230;42.602;23.470;2023-03-01T02:06:16;93911.84;;;4.50;100.00
11053;BME280;55230;42.602;23.470;2023-03-01T02:08:45;93916.38;;;4.57;100.00
11053;BME280;55230;42.602;23.470;2023-03-01T02:11:13;93915.22;;;4.58;100.00
11053;BME280;55230;42.602;23.470;2023-03-01T02:13:41;93966.44;;;4.49;100.00
11053;BME280;55230;42.602;23.470;2023-03-01T02:16:10;93859.84;;;4.28;100.00
11053;BME280;55230;42.602;23.470;2023-03-01T02:18:38;93867.03;;;4.35;100.00
11053;BME280;55230;42.602;23.470;2023-03-01T02:21:20;93487.97;;;1.87;100.00
11053;BME280;55230;42.602;23.470;2023-03-01T02:23:51;93893.97;;;4.47;100.00
11053;BME280;55230;42.602;23.470;2023-03-01T02:26:24;93907.25;;;4.54;100.00
11053;BME280;55230;42.602;23.470;2023-03-01T02:28:55;93915.91;;;4.65;100.00
11053;BME280;55230;42.602;23.470;2023-03-01T02:31:22;93921.06;;;4.46;100.00
11053;BME280;55230;42.602;23.470;2023-03-01T02:34:07;93913.38;;;4.51;100.00
11053;BME280;55230;42.602;23.470;2023-03-01T02:36:37;93744.41;;;3.06;100.00
11053;BME280;55230;42.602;23.470;2023-03-01T02:39:07;93848.66;;;3.63;100.00
11053;BME280;55230;42.602;23.470;2023-03-01T02:41:41;93936.31;;;4.45;100.00
11053;BME280;55230;42.602;23.470;2023-03-01T02:44:10;93767.53;;;3.19;100.00
11053;BME280;55230;42.602;23.470;2023-03-01T02:46:44;93921.97;;;4.32;100.00
11053;BME280;55230;42.602;23.470;2023-03-01T02:49:24;93835.50;;;3.86;100.00
11053;BME280;55230;42.602;23.470;2023-03-01T02:52:19;93810.50;;;3.73;100.00
11053;BME280;55230;42.602;23.470;2023-03-01T02:54:51;93792.69;;;3.59;100.00
11053;BME280;55230;42.602;23.470;2023-03-01T02:57:20;93967.25;;;4.43;100.00
11053;BME280;55230;42.602;23.470;2023-03-01T02:59:50;93835.41;;;3.96;100.00
11053;BME280;55230;42.602;23.470;2023-03-01T03:02:22;93683.97;;;2.99;100.00
11053;BME280;55230;42.602;23.470;2023-03-01T03:05:06;93906.47;;;4.54;100.00
11053;BME280;55230;42.602;23.470;2023-03-01T03:07:34;93833.56;;;3.90;100.00
11053;BME280;55230;42.602;23.470;2023-03-01T03:10:03;93864.53;;;4.21;100.00
11053;BME280;55230;42.602;23.470;2023-03-01T03:12:30;93892.28;;;4.27;100.00
11053;BME280;55230;42.602;23.470;2023-03-01T03:14:59;93846.50;;;3.91;100.00
11053;BME280;55230;42.602;23.470;2023-03-01T03:17:26;93890.47;;;4.17;100.00
11053;BME280;55230;42.602;23.470;2023-03-01T03:19:52;93878.91;;;3.90;100.00
11053;BME280;55230;42.602;23.470;2023-03-01T03:22:19;93890.06;;;4.18;100.00
11053;BME280;55230;42.602;23.470;2023-03-01T03:24:46;93873.84;;;4.02;100.00
11053;BME280;55230;42.602;23.470;2023-03-01T03:27:13;93804.66;;;3.40;100.00
11053;BME280;55230;42.602;23.470;2023-03-01T03:29:39;93783.88;;;3.66;100.00
11053;BME280;55230;42.602;23.470;2023-03-01T03:32:08;93794.06;;;3.78;100.00
11053;BME280;55230;42.602;23.470;2023-03-01T03:34:34;93336.16;;;0.82;100.00
11053;BME280;55230;42.602;23.470;2023-03-01T03:37:01;93919.25;;;4.73;100.00
11053;BME280;55230;42.602;23.470;2023-03-01T03:39:28;93876.09;;;4.44;100.00
11053;BME280;55230;42.602;23.470;2023-03-01T03:42:00;93916.97;;;4.71;100.00
11053;BME280;55230;42.602;23.470;2023-03-01T03:44:27;93874.59;;;4.43;100.00
11053;BME280;55230;42.602;23.470;2023-03-01T03:46:54;93923.81;;;4.76;100.00
11053;BME280;55230;42.602;23.470;2023-03-01T03:49:22;93913.78;;;4.50;100.00
11053;BME280;55230;42.602;23.470;2023-03-01T03:51:49;93691.47;;;3.11;100.00
11053;BME280;55230;42.602;23.470;2023-03-01T03:54:16;93943.75;;;4.64;100.00
11053;BME280;55230;42.602;23.470;2023-03-01T03:56:43;93918.00;;;4.47;100.00
11053;BME280;55230;42.602;23.470;2023-03-01T03:59:09;93802.13;;;3.71;100.00
11053;BME280;55230;42.602;23.470;2023-03-01T04:01:36;93685.59;;;2.35;100.00
11053;BME280;55230;42.602;23.470;2023-03-01T04:04:03;93963.28;;;4.21;100.00
11053;BME280;55230;42.602;23.470;2023-03-01T04:06:34;93805.56;;;3.23;100.00
11053;BME280;55230;42.602;23.470;2023-03-01T04:09:01;93723.78;;;2.69;100.00
11053;BME280;55230;42.602;23.470;2023-03-01T04:11:28;93797.91;;;3.29;100.00
11053;BME280;55230;42.602;23.470;2023-03-01T04:13:57;93839.25;;;3.47;100.00
11053;BME280;55230;42.602;23.470;2023-03-01T04:16:24;93840.22;;;3.68;100.00
11053;BME280;55230;42.602;23.470;2023-03-01T04:18:51;93625.38;;;1.97;100.00
11053;BME280;55230;42.602;23.470;2023-03-01T04:21:19;93847.97;;;3.55;100.00
11053;BME280;55230;42.602;23.470;2023-03-01T04:23:47;93835.81;;;3.47;100.00
11053;BME280;55230;42.602;23.470;2023-03-01T04:26:17;93871.50;;;3.67;100.00
11053;BME280;55230;42.602;23.470;2023-03-01T04:28:44;93662.09;;;2.23;100.00
11053;BME280;55230;42.602;23.470;2023-03-01T04:31:14;93951.00;;;4.27;100.00
11053;BME280;55230;42.602;23.470;2023-03-01T04:33:44;93909.31;;;3.99;100.00
11053;BME280;55230;42.602;23.470;2023-03-01T04:36:13;93888.13;;;3.82;100.00
11053;BME280;55230;42.602;23.470;2023-03-01T04:38:40;93691.31;;;2.85;100.00
11053;BME280;55230;42.602;23.470;2023-03-01T04:41:10;93648.53;;;2.07;100.00
11053;BME280;55230;42.602;23.470;2023-03-01T04:43:37;93832.19;;;3.27;100.00
11053;BME280;55230;42.602;23.470;2023-03-01T04:46:05;93458.97;;;0.86;100.00
11053;BME280;55230;42.602;23.470;2023-03-01T04:48:34;93919.69;;;4.31;100.00
11053;BME280;55230;42.602;23.470;2023-03-01T04:51:01;93991.88;;;4.20;100.00
11053;BME280;55230;42.602;23.470;2023-03-01T04:53:29;93857.03;;;3.65;100.00
11053;BME280;55230;42.602;23.470;2023-03-01T04:55:56;93911.09;;;4.13;100.00
11053;BME280;55230;42.602;23.470;2023-03-01T04:58:26;93870.94;;;3.86;100.00
11053;BME280;55230;42.602;23.470;2023-03-01T05:00:54;93922.41;;;4.27;100.00
11053;BME280;55230;42.602;23.470;2023-03-01T05:03:21;93847.50;;;3.64;100.00
11053;BME280;55230;42.602;23.470;2023-03-01T05:05:50;93923.31;;;4.14;100.00
11053;BME280;55230;42.602;23.470;2023-03-01T05:08:17;93859.56;;;3.79;100.00
11053;BME280;55230;42.602;23.470;2023-03-01T05:10:48;93491.69;;;1.42;100.00
11053;BME280;55230;42.602;23.470;2023-03-01T05:13:15;93927.84;;;4.17;100.00
11053;BME280;55230;42.602;23.470;2023-03-01T05:15:48;93914.66;;;3.99;100.00
11053;BME280;55230;42.602;23.470;2023-03-01T05:18:15;93871.19;;;3.99;100.00
11053;BME280;55230;42.602;23.470;2023-03-01T05:20:42;93892.41;;;4.13;100.00
11053;BME280;55230;42.602;23.470;2023-03-01T05:23:10;93879.41;;;4.18;100.00
11053;BME280;55230;42.602;23.470;2023-03-01T05:25:37;93807.81;;;3.73;100.00
11053;BME280;55230;42.602;23.470;2023-03-01T05:28:06;93872.09;;;4.26;100.00
11053;BME280;55230;42.602;23.470;2023-03-01T05:30:35;93908.81;;;4.52;100.00
11053;BME280;55230;42.602;23.470;2023-03-01T05:33:06;93851.28;;;4.10;100.00
11053;BME280;55230;42.602;23.470;2023-03-01T05:35:36;93864.16;;;4.19;100.00
11053;BME280;55230;42.602;23.470;2023-03-01T05:38:02;93919.97;;;4.77;100.00
11053;BME280;55230;42.602;23.470;2023-03-01T05:40:29;93835.91;;;4.21;100.00
11053;BME280;55230;42.602;23.470;2023-03-01T05:42:56;93947.75;;;4.87;100.00
11053;BME280;55230;42.602;23.470;2023-03-01T05:45:24;93705.75;;;3.31;100.00
11053;BME280;55230;42.602;23.470;2023-03-01T05:47:52;93928.34;;;4.79;100.00
11053;BME280;55230;42.602;23.470;2023-03-01T05:50:23;93932.56;;;4.77;100.00
11053;BME280;55230;42.602;23.470;2023-03-01T05:52:51;93933.69;;;4.79;100.00
11053;BME280;55230;42.602;23.470;2023-03-01T05:55:20;93815.31;;;3.40;100.00
11053;BME280;55230;42.602;23.470;2023-03-01T05:57:47;93942.44;;;4.83;100.00
11053;BME280;55230;42.602;23.470;2023-03-01T06:00:17;93948.81;;;4.93;100.00
11053;BME280;55230;42.602;23.470;2023-03-01T06:02:44;93955.59;;;4.97;100.00
11053;BME280;55230;42.602;23.470;2023-03-01T06:05:12;93853.28;;;4.36;100.00
11053;BME280;55230;42.602;23.470;2023-03-01T06:07:41;93945.72;;;4.94;100.00
11053;BME280;55230;42.602;23.470;2023-03-01T06:10:09;93676.00;;;2.48;100.00
11053;BME280;55230;42.602;23.470;2023-03-01T06:12:37;93960.78;;;4.81;100.00
11053;BME280;55230;42.602;23.470;2023-03-01T06:15:06;93925.25;;;4.47;100.00
11053;BME280;55230;42.602;23.470;2023-03-01T06:17:35;93892.34;;;4.20;100.00
11053;BME280;55230;42.602;23.470;2023-03-01T06:20:04;93969.69;;;4.67;100.00
11053;BME280;55230;42.602;23.470;2023-03-01T06:22:31;93871.00;;;3.79;100.00
11053;BME280;55230;42.602;23.470;2023-03-01T06:24:59;93997.22;;;4.61;100.00
11053;BME280;55230;42.602;23.470;2023-03-01T06:27:26;93842.38;;;3.83;100.00
11053;BME280;55230;42.602;23.470;2023-03-01T06:29:53;93980.72;;;4.29;100.00
11053;BME280;55230;42.602;23.470;2023-03-01T06:32:19;93932.28;;;3.90;100.00
11053;BME280;55230;42.602;23.470;2023-03-01T06:34:46;94004.00;;;4.25;100.00
11053;BME280;55230;42.602;23.470;2023-03-01T06:37:13;93966.91;;;4.37;100.00
11053;BME280;55230;42.602;23.470;2023-03-01T06:39:40;93977.81;;;4.57;100.00
11053;BME280;55230;42.602;23.470;2023-03-01T06:42:09;93972.91;;;4.52;100.00
11053;BME280;55230;42.602;23.470;2023-03-01T06:44:36;93959.88;;;4.54;100.00
11053;BME280;55230;42.602;23.470;2023-03-01T06:47:03;93969.53;;;4.82;100.00
11053;BME280;55230;42.602;23.470;2023-03-01T06:49:30;93977.34;;;4.65;100.00
11053;BME280;55230;42.602;23.470;2023-03-01T06:51:57;93860.06;;;3.67;100.00
11053;BME280;55230;42.602;23.470;2023-03-01T06:54:24;93976.44;;;4.38;100.00
11053;BME280;55230;42.602;23.470;2023-03-01T06:56:51;93989.41;;;4.40;100.00
11053;BME280;55230;42.602;23.470;2023-03-01T06:59:19;93869.88;;;3.77;100.00
11053;BME280;55230;42.602;23.470;2023-03-01T07:01:46;93978.00;;;4.73;100.00
11053;BME280;55230;42.602;23.470;2023-03-01T07:04:13;93923.25;;;4.17;100.00
11053;BME280;55230;42.602;23.470;2023-03-01T07:06:40;93969.38;;;4.62;100.00
11053;BME280;55230;42.602;23.470;2023-03-01T07:09:07;93965.81;;;4.72;100.00
11053;BME280;55230;42.602;23.470;2023-03-01T07:11:33;93914.66;;;3.99;100.00
11053;BME280;55230;42.602;23.470;2023-03-01T07:14:00;93889.16;;;3.95;100.00
11053;BME280;55230;42.602;23.470;2023-03-01T07:16:28;94028.56;;;4.53;100.00
11053;BME280;55230;42.602;23.470;2023-03-01T07:18:55;93733.25;;;3.21;100.00
11053;BME280;55230;42.602;23.470;2023-03-01T07:21:22;93876.47;;;4.43;100.00
11053;BME280;55230;42.602;23.470;2023-03-01T07:23:49;93919.22;;;4.77;100.00
11053;BME280;55230;42.602;23.470;2023-03-01T07:26:16;93677.03;;;3.49;100.00
11053;BME280;55230;42.602;23.470;2023-03-01T07:28:42;93909.28;;;5.37;100.00
11053;BME280;55230;42.602;23.470;2023-03-01T07:31:09;93960.47;;;5.93;100.00
11053;BME280;55230;42.602;23.470;2023-03-01T07:33:37;93959.56;;;6.03;100.00
11053;BME280;55230;42.602;23.470;2023-03-01T07:36:05;93853.59;;;5.32;100.00
11053;BME280;55230;42.602;23.470;2023-03-01T07:38:32;93857.91;;;5.49;100.00
11053;BME280;55230;42.602;23.470;2023-03-01T07:41:01;93905.38;;;5.68;100.00
11053;BME280;55230;42.602;23.470;2023-03-01T07:43:29;93953.00;;;6.07;100.00
11053;BME280;55230;42.602;23.470;2023-03-01T07:45:58;93900.56;;;5.87;100.00
11053;BME280;55230;42.602;23.470;2023-03-01T07:48:25;93957.63;;;6.30;100.00
11053;BME280;55230;42.602;23.470;2023-03-01T07:50:53;93914.31;;;5.85;100.00
11053;BME280;55230;42.602;23.470;2023-03-01T07:53:20;93736.72;;;4.83;100.00
11053;BME280;55230;42.602;23.470;2023-03-01T07:55:47;93900.50;;;5.63;100.00
11053;BME280;55230;42.602;23.470;2023-03-01T07:58:13;93942.22;;;5.88;100.00
11053;BME280;55230;42.602;23.470;2023-03-01T08:00:40;93499.28;;;2.79;100.00
11053;BME280;55230;42.602;23.470;2023-03-01T08:03:07;93938.25;;;5.96;100.00
11053;BME280;55230;42.602;23.470;2023-03-01T08:05:33;93938.03;;;6.10;100.00
11053;BME280;55230;42.602;23.470;2023-03-01T08:08:02;93978.03;;;6.20;100.00
11053;BME280;55230;42.602;23.470;2023-03-01T08:10:28;93956.75;;;5.87;100.00
11053;BME280;55230;42.602;23.470;2023-03-01T08:12:55;93927.16;;;5.70;100.00
11053;BME280;55230;42.602;23.470;2023-03-01T08:15:22;93949.41;;;5.91;100.00
11053;BME280;55230;42.602;23.470;2023-03-01T08:17:49;93897.16;;;5.56;100.00
11053;BME280;55230;42.602;23.470;2023-03-01T08:20:16;93794.41;;;4.47;100.00
11053;BME280;55230;42.602;23.470;2023-03-01T08:22:43;93967.22;;;5.47;100.00
11053;BME280;55230;42.602;23.470;2023-03-01T08:25:11;93918.47;;;5.36;100.00
11053;BME280;55230;42.602;23.470;2023-03-01T08:27:38;93897.25;;;4.92;100.00
11053;BME280;55230;42.602;23.470;2023-03-01T08:30:06;93941.22;;;5.48;100.00
11053;BME280;55230;42.602;23.470;2023-03-01T08:32:36;93885.25;;;5.07;100.00
11053;BME280;55230;42.602;23.470;2023-03-01T08:35:04;93914.63;;;5.37;100.00
11053;BME280;55230;42.602;23.470;2023-03-01T08:37:31;93841.97;;;4.89;100.00
11053;BME280;55230;42.602;23.470;2023-03-01T08:39:58;93716.56;;;4.22;100.00
11053;BME280;55230;42.602;23.470;2023-03-01T08:42:26;93933.28;;;5.71;100.00
11053;BME280;55230;42.602;23.470;2023-03-01T08:44:53;93961.88;;;5.74;100.00
11053;BME280;55230;42.602;23.470;2023-03-01T08:47:20;93902.50;;;5.56;100.00
11053;BME280;55230;42.602;23.470;2023-03-01T08:49:46;93795.50;;;4.83;100.00
11053;BME280;55230;42.602;23.470;2023-03-01T08:52:15;93714.97;;;3.98;100.00
11053;BME280;55230;42.602;23.470;2023-03-01T08:54:42;93926.78;;;5.68;100.00
11053;BME280;55230;42.602;23.470;2023-03-01T08:57:08;93968.75;;;6.02;100.00
11053;BME280;55230;42.602;23.470;2023-03-01T08:59:37;93982.91;;;6.02;100.00
11053;BME280;55230;42.602;23.470;2023-03-01T09:02:04;93930.59;;;5.98;100.00
11053;BME280;55230;42.602;23.470;2023-03-01T09:04:31;93949.34;;;6.21;100.00
11053;BME280;55230;42.602;23.470;2023-03-01T09:06:59;93892.31;;;5.47;100.00
11053;BME280;55230;42.602;23.470;2023-03-01T09:09:25;93680.56;;;4.07;100.00
11053;BME280;55230;42.602;23.470;2023-03-01T09:11:52;93942.47;;;5.97;100.00
11053;BME280;55230;42.602;23.470;2023-03-01T09:14:19;93849.53;;;5.47;100.00
11053;BME280;55230;42.602;23.470;2023-03-01T09:16:47;93867.00;;;5.55;100.00
11053;BME280;55230;42.602;23.470;2023-03-01T09:19:14;93963.75;;;6.27;100.00
11053;BME280;55230;42.602;23.470;2023-03-01T09:21:41;93809.88;;;5.42;100.00
11053;BME280;55230;42.602;23.470;2023-03-01T09:24:19;93935.97;;;6.21;100.00
11053;BME280;55230;42.602;23.470;2023-03-01T09:26:46;93932.09;;;6.22;100.00
11053;BME280;55230;42.602;23.470;2023-03-01T09:29:14;93610.31;;;4.13;100.00
11053;BME280;55230;42.602;23.470;2023-03-01T09:31:41;93716.69;;;4.95;100.00
11053;BME280;55230;42.602;23.470;2023-03-01T09:34:10;93880.91;;;5.97;100.00
11053;BME280;55230;42.602;23.470;2023-03-01T09:36:37;93864.50;;;5.68;100.00
11053;BME280;55230;42.602;23.470;2023-03-01T09:39:04;93719.78;;;4.93;100.00
11053;BME280;55230;42.602;23.470;2023-03-01T09:41:45;93907.63;;;6.00;100.00
11053;BME280;55230;42.602;23.470;2023-03-01T09:44:20;93937.22;;;6.36;100.00
11053;BME280;55230;42.602;23.470;2023-03-01T09:46:50;93930.84;;;6.30;100.00
11053;BME280;55230;42.602;23.470;2023-03-01T09:49:20;93928.19;;;6.03;100.00
11053;BME280;55230;42.602;23.470;2023-03-01T09:51:56;93931.25;;;6.05;100.00
11053;BME280;55230;42.602;23.470;2023-03-01T09:54:23;93858.50;;;5.87;100.00
11053;BME280;55230;42.602;23.470;2023-03-01T09:56:59;93922.34;;;6.35;100.00
11053;BME280;55230;42.602;23.470;2023-03-01T09:59:37;93849.00;;;5.33;100.00
11053;BME280;55230;42.602;23.470;2023-03-01T10:02:21;93937.81;;;6.24;100.00
11053;BME280;55230;42.602;23.470;2023-03-01T10:04:51;93860.03;;;5.61;100.00
11053;BME280;55230;42.602;23.470;2023-03-01T10:07:27;93921.16;;;6.13;100.00
11053;BME280;55230;42.602;23.470;2023-03-01T10:09:57;93916.97;;;6.12;100.00
11053;BME280;55230;42.602;23.470;2023-03-01T10:12:33;93886.94;;;6.01;100.00
11053;BME280;55230;42.602;23.470;2023-03-01T10:15:04;93748.31;;;5.00;100.00
11053;BME280;55230;42.602;23.470;2023-03-01T10:17:36;93794.84;;;5.52;100.00
11053;BME280;55230;42.602;23.470;2023-03-01T10:20:20;93907.38;;;6.14;100.00
11053;BME280;55230;42.602;23.470;2023-03-01T10:22:47;93897.53;;;6.08;100.00
11053;BME280;55230;42.602;23.470;2023-03-01T10:25:25;93584.41;;;4.14;100.00
11053;BME280;55230;42.602;23.470;2023-03-01T10:28:01;93892.47;;;6.56;100.00
11053;BME280;55230;42.602;23.470;2023-03-01T10:30:34;93884.09;;;6.73;100.00
11053;BME280;55230;42.602;23.470;2023-03-01T10:33:08;93861.28;;;6.65;100.00
11053;BME280;55230;42.602;23.470;2023-03-01T10:35:41;93885.81;;;6.64;100.00
11053;BME280;55230;42.602;23.470;2023-03-01T10:38:09;93880.06;;;6.65;100.00
11053;BME280;55230;42.602;23.470;2023-03-01T10:40:50;93874.00;;;6.81;100.00
11053;BME280;55230;42.602;23.470;2023-03-01T10:43:17;93818.81;;;6.25;100.00
11053;BME280;55230;42.602;23.470;2023-03-01T10:45:44;93919.53;;;6.61;100.00
11053;BME280;55230;42.602;23.470;2023-03-01T10:48:13;93804.22;;;6.49;100.00
11053;BME280;55230;42.602;23.470;2023-03-01T10:50:43;93868.22;;;7.02;100.00
11053;BME280;55230;42.602;23.470;2023-03-01T10:53:23;93864.16;;;6.94;100.00
11053;BME280;55230;42.602;23.470;2023-03-01T10:56:00;93864.94;;;6.55;100.00
11053;BME280;55230;42.602;23.470;2023-03-01T10:58:29;93823.31;;;6.31;100.00
11053;BME280;55230;42.602;23.470;2023-03-01T11:00:58;93792.03;;;6.25;100.00
11053;BME280;55230;42.602;23.470;2023-03-01T11:03:26;93860.75;;;6.74;100.00
11053;BME280;55230;42.602;23.470;2023-03-01T11:06:04;93783.13;;;6.31;100.00
11053;BME280;55230;42.602;23.470;2023-03-01T11:08:34;93856.69;;;6.66;100.00
11053;BME280;55230;42.602;23.470;2023-03-01T11:11:17;93786.06;;;5.98;100.00
11053;BME280;55230;42.602;23.470;2023-03-01T11:13:51;93853.63;;;6.25;100.00
11053;BME280;55230;42.602;23.470;2023-03-01T11:16:24;93866.56;;;6.30;100.00
11053;BME280;55230;42.602;23.470;2023-03-01T11:19:14;93868.34;;;6.56;100.00
11053;BME280;55230;42.602;23.470;2023-03-01T11:21:49;93860.78;;;6.51;100.00
11053;BME280;55230;42.602;23.470;2023-03-01T11:24:19;93839.47;;;6.05;100.00
11053;BME280;55230;42.602;23.470;2023-03-01T11:26:50;93869.56;;;6.32;100.00
11053;BME280;55230;42.602;23.470;2023-03-01T11:29:26;93884.59;;;6.49;100.00
11053;BME280;55230;42.602;23.470;2023-03-01T11:31:57;93824.56;;;6.04;100.00
11053;BME280;55230;42.602;23.470;2023-03-01T11:34:36;93860.19;;;6.43;100.00
11053;BME280;55230;42.602;23.470;2023-03-01T11:37:12;93817.09;;;5.95;100.00
11053;BME280;55230;42.602;23.470;2023-03-01T11:39:45;93862.66;;;6.34;100.00
11053;BME280;55230;42.602;23.470;2023-03-01T11:42:17;93856.28;;;6.67;100.00
11053;BME280;55230;42.602;23.470;2023-03-01T11:44:47;93864.91;;;6.75;100.00
11053;BME280;55230;42.602;23.470;2023-03-01T11:47:29;93891.25;;;6.80;100.00
11053;BME280;55230;42.602;23.470;2023-03-01T11:50:10;93797.88;;;6.39;100.00
11053;BME280;55230;42.602;23.470;2023-03-01T11:52:54;93593.63;;;5.25;100.00
11053;BME280;55230;42.602;23.470;2023-03-01T11:55:32;93458.16;;;4.40;100.00
11053;BME280;55230;42.602;23.470;2023-03-01T11:58:14;93749.66;;;6.59;100.00
11053;BME280;55230;42.602;23.470;2023-03-01T12:00:57;93483.13;;;4.92;100.00
11053;BME280;55230;42.602;23.470;2023-03-01T12:03:33;93330.22;;;4.10;100.00
11053;BME280;55230;42.602;23.470;2023-03-01T12:06:24;93842.56;;;7.53;99.38
11053;BME280;55230;42.602;23.470;2023-03-01T12:09:15;93805.28;;;7.74;100.00
11053;BME280;55230;42.602;23.470;2023-03-01T12:11:57;93860.84;;;8.22;97.61
11053;BME280;55230;42.602;23.470;2023-03-01T12:14:40;93840.47;;;8.53;97.05
11053;BME280;55230;42.602;23.470;2023-03-01T12:17:29;93808.91;;;8.70;95.42
11053;BME280;55230;42.602;23.470;2023-03-01T12:20:12;93776.16;;;8.75;90.40
11053;BME280;55230;42.602;23.470;2023-03-01T12:22:54;93837.53;;;9.43;91.86
11053;BME280;55230;42.602;23.470;2023-03-01T12:25:31;93788.00;;;9.15;89.60
11053;BME280;55230;42.602;23.470;2023-03-01T12:28:32;93835.72;;;9.52;89.52
11053;BME280;55230;42.602;23.470;2023-03-01T12:34:04;93829.28;;;8.96;89.51
11053;BME280;55230;42.602;23.470;2023-03-01T12:36:52;93825.47;;;8.68;91.65
11053;BME280;55230;42.602;23.470;2023-03-01T12:39:32;93795.75;;;8.47;93.95
11053;BME280;55230;42.602;23.470;2023-03-01T12:42:10;93779.94;;;8.49;93.34
11053;BME280;55230;42.602;23.470;2023-03-01T12:44:56;93825.13;;;8.66;91.63
11053;BME280;55230;42.602;23.470;2023-03-01T12:47:37;93696.19;;;7.80;93.26
11053;BME280;55230;42.602;23.470;2023-03-01T12:50:12;93632.66;;;7.49;92.36
11053;BME280;55230;42.602;23.470;2023-03-01T12:52:46;93714.09;;;7.71;93.35
11053;BME280;55230;42.602;23.470;2023-03-01T12:55:27;93820.22;;;8.36;94.23
11053;BME280;55230;42.602;23.470;2023-03-01T12:58:04;93810.41;;;8.13;94.12
11053;BME280;55230;42.602;23.470;2023-03-01T13:00:38;93799.81;;;7.78;95.82
11053;BME280;55230;42.602;23.470;2023-03-01T13:03:15;93811.53;;;8.00;94.58
11053;BME280;55230;42.602;23.470;2023-03-01T13:05:56;93806.75;;;7.75;97.25
11053;BME280;55230;42.602;23.470;2023-03-01T13:08:30;93793.47;;;7.56;97.29
11053;BME280;55230;42.602;23.470;2023-03-01T13:11:01;93812.47;;;7.77;98.86